Time;durP1;ratioP1;P1;durP2;ratioP2;P2;SDS_P1;SDS_P2;PMS_P1;PMS_P2;Temp;Humidity;BMP_temperature;BMP_pressure;BME280_temperature;BME280_humidity;BME280_pressure;Samples;Min_cycle;Max_cycle;Signal;HPM_P1;HPM_P2
2022/07/11 00:00:23;;;;;;;11.70;10.43;;;18.10;99.90;;;;;;5097684;28;20458;-65
2022/07/11 00:02:51;;;;;;;10.27;9.57;;;18.20;99.90;;;;;;5099970;28;20489;-67
2022/07/11 00:05:20;;;;;;;10.47;9.77;;;18.20;99.90;;;;;;5102398;28;20979;-65
2022/07/11 00:07:47;;;;;;;11.20;10.40;;;18.20;99.90;;;;;;5095095;28;20454;-65
2022/07/11 00:10:15;;;;;;;11.33;10.53;;;18.20;99.90;;;;;;5095742;28;20449;-66
2022/07/11 00:12:41;;;;;;;11.20;10.17;;;18.20;99.90;;;;;;5097533;28;20564;-66
2022/07/11 00:15:11;;;;;;;13.63;10.60;;;18.20;99.90;;;;;;5098444;28;20976;-65
2022/07/11 00:17:37;;;;;;;12.27;10.23;;;18.20;99.90;;;;;;5093852;28;20490;-64
2022/07/11 00:20:05;;;;;;;11.57;10.87;;;18.10;99.90;;;;;;5097062;28;20465;-66
2022/07/11 00:22:34;;;;;;;12.60;10.70;;;18.10;99.90;;;;;;5093838;28;20469;-65
2022/07/11 00:25:02;;;;;;;10.93;10.07;;;18.20;99.90;;;;;;5094063;28;20485;-64
2022/07/11 00:27:29;;;;;;;11.30;10.50;;;18.10;99.90;;;;;;5097068;28;21047;-65
2022/07/11 00:29:55;;;;;;;11.03;10.10;;;18.10;99.90;;;;;;5092554;28;20462;-66
2022/07/11 00:32:22;;;;;;;11.30;10.40;;;18.00;99.90;;;;;;5103744;28;20496;-64
2022/07/11 00:34:49;;;;;;;10.90;10.10;;;18.00;99.90;;;;;;5088919;28;20477;-65
2022/07/11 00:37:16;;;;;;;11.20;10.30;;;18.00;99.90;;;;;;5101095;28;20503;-65
2022/07/11 00:39:44;;;;;;;11.30;10.30;;;18.00;99.90;;;;;;5097148;28;20461;-66
2022/07/11 00:42:11;;;;;;;11.30;10.13;;;18.00;99.90;;;;;;5092411;28;20979;-64
2022/07/11 00:44:38;;;;;;;11.20;10.00;;;18.00;99.90;;;;;;5098419;28;20469;-65
2022/07/11 00:47:05;;;;;;;10.97;10.17;;;17.90;99.90;;;;;;5093903;28;20844;-66
2022/07/11 00:49:32;;;;;;;10.80;10.00;;;17.90;99.90;;;;;;5092830;28;20466;-66
2022/07/11 00:51:59;;;;;;;11.33;10.47;;;17.90;99.90;;;;;;5095484;28;20548;-68
2022/07/11 00:54:27;;;;;;;10.70;10.00;;;17.80;99.90;;;;;;5097766;28;20463;-66
2022/07/11 00:56:57;;;;;;;11.83;10.93;;;17.80;99.90;;;;;;5092971;28;20986;-67
2022/07/11 00:59:24;;;;;;;10.33;9.63;;;17.80;99.90;;;;;;5094228;28;20486;-64
2022/07/11 01:01:51;;;;;;;10.63;9.77;;;17.70;99.90;;;;;;5095482;28;20458;-64
2022/07/11 01:04:18;;;;;;;11.60;10.70;;;17.80;99.90;;;;;;5095292;28;20464;-66
2022/07/11 01:06:45;;;;;;;13.33;9.87;;;17.70;99.90;;;;;;5096087;28;20469;-64
2022/07/11 01:09:12;;;;;;;10.70;10.00;;;17.70;99.90;;;;;;5097734;28;20465;-64
2022/07/11 01:11:39;;;;;;;11.37;10.33;;;17.60;99.90;;;;;;5096613;28;20455;-64
2022/07/11 01:14:07;;;;;;;11.23;10.43;;;17.60;99.90;;;;;;5096217;28;20458;-65
2022/07/11 01:16:35;;;;;;;10.80;10.20;;;17.60;99.90;;;;;;5095833;28;20472;-65
2022/07/11 01:19:02;;;;;;;10.80;9.90;;;17.50;99.90;;;;;;5097767;28;20478;-64
2022/07/11 01:21:32;;;;;;;10.83;10.03;;;17.40;99.90;;;;;;5103655;28;20453;-65
2022/07/11 01:24:02;;;;;;;11.13;10.10;;;17.40;99.90;;;;;;5100440;28;20457;-65
2022/07/11 01:26:29;;;;;;;10.83;9.83;;;17.20;99.90;;;;;;5086958;28;20474;-67
2022/07/11 01:29:06;;;;;;;13.60;9.93;;;17.10;99.90;;;;;;5087750;28;20957;-64
2022/07/11 01:31:33;;;;;;;11.70;10.60;;;17.00;99.90;;;;;;5095588;28;20800;-65
2022/07/11 01:34:00;;;;;;;11.17;10.30;;;16.80;99.90;;;;;;5097516;28;20494;-65
2022/07/11 01:36:28;;;;;;;11.23;10.33;;;16.80;99.90;;;;;;5096524;28;21418;-66
2022/07/11 01:38:54;;;;;;;11.93;11.13;;;16.60;99.90;;;;;;5088337;28;20485;-66
2022/07/11 01:41:24;;;;;;;10.70;9.93;;;16.50;99.90;;;;;;5096938;28;21028;-66
2022/07/11 01:43:51;;;;;;;12.03;10.80;;;16.40;99.90;;;;;;5094506;28;20655;-65
2022/07/11 01:46:18;;;;;;;13.83;10.87;;;16.20;99.90;;;;;;5098754;28;21032;-65
2022/07/11 01:48:45;;;;;;;11.07;10.20;;;16.00;99.90;;;;;;5092866;28;20469;-65
2022/07/11 01:51:13;;;;;;;17.20;10.77;;;15.90;99.90;;;;;;5087157;28;20484;-66
2022/07/11 01:53:40;;;;;;;13.07;10.40;;;15.90;99.90;;;;;;5102070;28;20508;-64
2022/07/11 01:56:07;;;;;;;11.07;10.00;;;15.80;99.90;;;;;;5095183;28;20469;-65
2022/07/11 01:58:36;;;;;;;11.93;10.00;;;15.70;99.90;;;;;;5093684;28;20910;-65
2022/07/11 02:01:03;;;;;;;12.40;10.27;;;15.60;99.90;;;;;;5097645;28;20485;-64
2022/07/11 02:03:31;;;;;;;11.73;10.77;;;15.50;99.90;;;;;;5097947;28;20853;-66
2022/07/11 02:05:58;;;;;;;11.93;10.93;;;15.50;99.90;;;;;;5096818;28;20466;-65
2022/07/11 02:08:25;;;;;;;11.93;10.63;;;15.50;99.90;;;;;;5094632;28;20722;-65
2022/07/11 02:10:53;;;;;;;12.07;9.60;;;15.40;99.90;;;;;;5093455;28;20980;-65
2022/07/11 02:13:22;;;;;;;16.80;10.80;;;15.40;99.90;;;;;;5090278;28;20819;-65
2022/07/11 02:15:53;;;;;;;12.37;11.10;;;15.30;99.90;;;;;;5092279;28;20461;-64
2022/07/11 02:18:21;;;;;;;13.13;10.40;;;15.20;99.90;;;;;;5095988;28;21163;-66
2022/07/11 02:20:48;;;;;;;13.03;10.27;;;15.20;99.90;;;;;;5092875;28;20468;-65
2022/07/11 02:23:16;;;;;;;11.60;10.40;;;15.20;99.90;;;;;;5098601;28;20466;-65
2022/07/11 02:25:43;;;;;;;12.57;11.37;;;15.10;99.90;;;;;;5088272;28;20882;-65
2022/07/11 02:28:11;;;;;;;12.77;11.37;;;15.10;99.90;;;;;;5092647;28;20891;-65
2022/07/11 02:30:39;;;;;;;11.40;10.30;;;15.10;99.90;;;;;;5093940;28;20468;-66
2022/07/11 02:33:10;;;;;;;11.70;10.43;;;15.10;99.90;;;;;;5090160;28;20464;-65
2022/07/11 02:35:38;;;;;;;12.27;10.97;;;15.10;99.90;;;;;;5098206;28;20506;-65
2022/07/11 02:38:05;;;;;;;16.50;13.20;;;15.00;99.90;;;;;;5093133;28;20493;-65
2022/07/11 02:40:33;;;;;;;12.07;10.90;;;14.90;99.90;;;;;;5091351;28;20453;-64
2022/07/11 02:43:00;;;;;;;13.37;12.37;;;14.90;99.90;;;;;;5098128;28;20869;-65
2022/07/11 02:45:27;;;;;;;13.30;12.30;;;14.80;99.90;;;;;;5094818;28;20472;-65
2022/07/11 02:47:54;;;;;;;12.90;11.60;;;14.60;99.90;;;;;;5097697;28;20462;-65
2022/07/11 02:50:22;;;;;;;13.03;11.93;;;14.60;99.90;;;;;;5099384;28;20975;-67
2022/07/11 02:52:48;;;;;;;15.23;12.47;;;14.50;99.90;;;;;;5098669;28;20442;-66
2022/07/11 02:55:16;;;;;;;13.90;12.67;;;14.50;99.90;;;;;;5098736;28;20991;-65
2022/07/11 02:57:43;;;;;;;13.67;12.27;;;14.50;99.90;;;;;;5100499;27;20460;-66
2022/07/11 03:00:12;;;;;;;12.70;11.70;;;14.60;99.90;;;;;;5100848;28;20457;-67
2022/07/11 03:02:40;;;;;;;14.57;11.10;;;14.60;99.90;;;;;;5095665;28;20462;-66
2022/07/11 03:05:08;;;;;;;16.70;12.77;;;14.60;99.90;;;;;;5102014;28;20511;-65
2022/07/11 03:07:37;;;;;;;18.43;11.93;;;14.50;99.90;;;;;;5095963;28;20460;-66
2022/07/11 03:10:05;;;;;;;19.67;13.83;;;14.50;99.90;;;;;;5098484;28;20939;-66
2022/07/11 03:12:32;;;;;;;14.50;12.73;;;14.40;99.90;;;;;;5097618;28;20472;-67
2022/07/11 03:14:59;;;;;;;14.27;12.50;;;14.50;99.90;;;;;;5102347;28;20472;-66
2022/07/11 03:17:26;;;;;;;14.30;11.47;;;14.60;99.90;;;;;;5099575;28;20462;-65
2022/07/11 03:19:54;;;;;;;25.93;12.30;;;14.60;99.90;;;;;;5097635;28;20488;-66
2022/07/11 03:22:22;;;;;;;14.30;11.40;;;14.70;99.90;;;;;;5096862;28;20469;-64
2022/07/11 03:24:52;;;;;;;15.63;11.43;;;14.70;99.90;;;;;;5095106;28;20458;-65
2022/07/11 03:27:20;;;;;;;13.87;12.10;;;14.70;99.90;;;;;;5094412;28;20488;-66
2022/07/11 03:29:48;;;;;;;13.30;11.83;;;14.70;99.90;;;;;;5095240;28;20814;-66
2022/07/11 03:32:15;;;;;;;18.17;12.77;;;14.80;99.90;;;;;;5094270;28;21047;-67
2022/07/11 03:35:40;;;;;;;16.60;12.47;;;14.80;99.90;;;;;;5097201;28;20457;-65
2022/07/11 03:37:30;;;;;;;16.93;11.50;;;14.80;99.90;;;;;;5099403;28;20519;-65
2022/07/11 03:39:59;;;;;;;13.03;11.80;;;15.00;99.90;;;;;;5098493;28;20496;-65
2022/07/11 03:42:26;;;;;;;15.90;12.60;;;15.10;99.90;;;;;;5094682;28;20465;-68
2022/07/11 03:44:53;;;;;;;18.67;11.50;;;15.10;99.90;;;;;;5097005;28;20461;-66
2022/07/11 03:47:20;;;;;;;13.90;11.33;;;15.20;99.90;;;;;;5102842;28;20804;-66
2022/07/11 03:49:48;;;;;;;15.40;11.63;;;15.30;99.90;;;;;;5090302;28;20457;-66
2022/07/11 03:52:14;;;;;;;13.97;12.40;;;15.40;99.90;;;;;;5095865;28;20626;-67
2022/07/11 03:54:43;;;;;;;18.03;11.17;;;15.40;99.90;;;;;;5097069;28;20465;-66
2022/07/11 03:57:12;;;;;;;12.93;11.73;;;15.50;99.90;;;;;;5092179;28;20468;-68
2022/07/11 03:59:39;;;;;;;14.50;11.47;;;15.60;99.90;;;;;;5097414;28;20500;-65
2022/07/11 04:02:06;;;;;;;18.50;12.30;;;15.70;99.90;;;;;;5085164;28;20490;-67
2022/07/11 04:04:33;;;;;;;12.97;11.43;;;15.70;99.90;;;;;;5073862;28;20780;-69
2022/07/11 04:07:00;;;;;;;14.77;12.00;;;15.80;99.90;;;;;;5069471;28;20454;-66
2022/07/11 04:09:26;;;;;;;14.20;11.10;;;15.80;99.90;;;;;;5070346;28;20466;-66
2022/07/11 04:11:53;;;;;;;14.07;12.60;;;15.90;99.90;;;;;;5070044;28;21261;-71
2022/07/11 04:14:21;;;;;;;12.73;11.47;;;15.90;99.90;;;;;;5070430;28;21332;-67
2022/07/11 04:16:48;;;;;;;15.07;11.40;;;15.90;99.90;;;;;;5069678;28;20484;-67
2022/07/11 04:19:15;;;;;;;13.13;11.77;;;16.10;99.90;;;;;;5070295;28;20489;-66
2022/07/11 04:21:41;;;;;;;14.17;11.40;;;16.20;99.90;;;;;;5070030;28;20454;-65
2022/07/11 04:24:09;;;;;;;24.13;11.90;;;16.20;99.90;;;;;;5070735;28;20466;-66
2022/07/11 04:26:35;;;;;;;13.00;11.70;;;16.30;99.90;;;;;;5067882;28;20544;-67
2022/07/11 04:29:03;;;;;;;13.13;11.80;;;16.30;99.90;;;;;;5069087;28;20867;-65
2022/07/11 04:31:32;;;;;;;19.50;12.37;;;16.20;99.90;;;;;;5070650;28;20505;-66
2022/07/11 04:33:58;;;;;;;15.20;11.97;;;16.20;99.90;;;;;;5092038;28;20457;-67
2022/07/11 04:36:26;;;;;;;13.87;11.87;;;16.30;99.90;;;;;;5092129;28;20470;-66
2022/07/11 04:38:52;;;;;;;19.77;11.77;;;16.50;99.90;;;;;;5101189;28;20686;-66
2022/07/11 04:41:20;;;;;;;12.70;11.70;;;16.50;99.90;;;;;;5079805;28;20484;-66
2022/07/11 04:43:46;;;;;;;16.20;11.10;;;16.60;99.90;;;;;;5070292;28;21002;-67
2022/07/11 04:46:14;;;;;;;11.63;10.60;;;16.70;99.90;;;;;;5069438;28;20488;-66
2022/07/11 04:48:42;;;;;;;11.97;10.97;;;16.80;99.90;;;;;;5070231;28;20774;-66
2022/07/11 04:51:09;;;;;;;16.47;10.90;;;16.80;99.90;;;;;;5070318;28;20975;-66
2022/07/11 04:53:35;;;;;;;13.00;11.60;;;16.80;99.90;;;;;;5070359;28;20476;-66
2022/07/11 04:56:02;;;;;;;11.67;10.63;;;16.90;99.90;;;;;;5068682;28;20988;-66
2022/07/11 04:58:32;;;;;;;12.67;11.37;;;17.00;99.90;;;;;;5069420;28;20471;-65
2022/07/11 05:00:59;;;;;;;11.70;10.70;;;17.10;99.90;;;;;;5069641;28;20458;-67
2022/07/11 05:03:26;;;;;;;12.97;11.77;;;17.20;99.90;;;;;;5068161;28;20476;-69
2022/07/11 05:05:54;;;;;;;14.03;11.40;;;17.30;99.90;;;;;;5069824;28;20469;-67
2022/07/11 05:08:21;;;;;;;16.13;11.70;;;17.20;99.90;;;;;;5068445;28;20483;-65
2022/07/11 05:10:48;;;;;;;15.13;11.00;;;17.30;99.90;;;;;;5069266;28;20931;-66
2022/07/11 05:13:14;;;;;;;11.77;10.30;;;17.30;99.90;;;;;;5069377;28;20863;-67
2022/07/11 05:15:42;;;;;;;14.63;10.83;;;17.40;99.90;;;;;;5070758;28;20470;-67
2022/07/11 05:18:09;;;;;;;11.87;10.57;;;17.30;99.90;;;;;;5068540;28;20990;-67
2022/07/11 05:20:36;;;;;;;12.10;10.10;;;17.50;99.90;;;;;;5070348;28;20504;-68
2022/07/11 05:23:04;;;;;;;11.93;10.80;;;17.40;99.90;;;;;;5068998;28;20538;-68
2022/07/11 05:25:31;;;;;;;12.33;11.23;;;17.50;99.90;;;;;;5069637;28;21086;-67
2022/07/11 05:27:58;;;;;;;11.10;10.10;;;17.50;99.90;;;;;;5069723;28;20477;-66
2022/07/11 05:30:25;;;;;;;15.20;9.70;;;17.60;99.90;;;;;;5068548;28;20576;-67
2022/07/11 05:32:52;;;;;;;10.80;9.70;;;17.60;99.90;;;;;;5068785;28;20831;-66
2022/07/11 05:35:18;;;;;;;11.50;10.30;;;17.60;99.90;;;;;;5068633;28;20466;-67
2022/07/11 05:37:45;;;;;;;9.77;9.07;;;17.70;99.90;;;;;;5068687;28;20480;-67
2022/07/11 05:40:14;;;;;;;9.90;8.67;;;17.60;99.90;;;;;;5068418;28;20481;-66
2022/07/11 05:42:41;;;;;;;11.47;10.07;;;17.60;99.90;;;;;;5068703;28;20687;-65
2022/07/11 05:45:09;;;;;;;10.50;9.50;;;17.70;99.90;;;;;;5070237;28;20477;-67
2022/07/11 05:47:36;;;;;;;10.13;9.20;;;17.70;99.90;;;;;;5070126;28;20878;-67
2022/07/11 05:50:03;;;;;;;10.23;9.20;;;17.80;99.90;;;;;;5070801;28;20450;-65
2022/07/11 05:52:30;;;;;;;10.47;9.57;;;17.80;99.90;;;;;;5069885;28;20492;-66
2022/07/11 05:54:57;;;;;;;10.50;9.53;;;17.90;99.90;;;;;;5070407;28;20470;-66
2022/07/11 05:57:26;;;;;;;11.43;10.07;;;17.90;99.90;;;;;;5069195;28;20953;-67
2022/07/11 05:59:53;;;;;;;10.07;9.07;;;17.90;99.90;;;;;;5070120;28;20493;-66
2022/07/11 06:02:20;;;;;;;11.10;10.30;;;17.90;99.90;;;;;;5066918;28;20462;-65
2022/07/11 06:04:47;;;;;;;12.73;10.70;;;17.90;99.90;;;;;;5068882;28;20472;-67
2022/07/11 06:08:40;;;;;;;11.80;10.70;;;18.00;99.90;;;;;;5066744;28;20473;-65
2022/07/11 06:10:01;;;;;;;11.23;10.53;;;18.10;99.90;;;;;;5067359;28;20954;-67
2022/07/11 06:12:30;;;;;;;11.80;11.00;;;18.10;99.90;;;;;;5067219;28;20462;-67
2022/07/11 06:14:57;;;;;;;11.73;10.53;;;17.90;99.90;;;;;;5069164;28;21168;-65
2022/07/11 06:17:24;;;;;;;11.83;10.83;;;18.10;99.90;;;;;;5073196;28;20462;-67
2022/07/11 06:19:51;;;;;;;11.70;10.70;;;18.20;99.90;;;;;;5071836;28;20496;-67
2022/07/11 06:22:17;;;;;;;12.30;10.40;;;18.30;99.90;;;;;;5072340;28;20470;-67
2022/07/11 06:24:44;;;;;;;11.83;10.83;;;18.40;99.90;;;;;;5072739;28;20972;-65
2022/07/11 06:27:11;;;;;;;10.73;9.93;;;18.30;99.90;;;;;;5071408;28;20480;-68
2022/07/11 06:29:40;;;;;;;11.43;10.40;;;18.50;99.90;;;;;;5072488;28;21068;-70
2022/07/11 06:32:07;;;;;;;11.30;10.60;;;18.50;99.90;;;;;;5073263;28;21082;-67
2022/07/11 06:34:36;;;;;;;10.83;10.03;;;18.40;99.90;;;;;;5086431;28;20461;-66
2022/07/11 06:37:03;;;;;;;9.73;9.13;;;18.30;99.90;;;;;;5107678;28;20818;-66
2022/07/11 06:39:30;;;;;;;10.13;9.27;;;18.40;99.90;;;;;;5078806;28;20481;-66
2022/07/11 06:41:57;;;;;;;9.37;8.67;;;18.30;99.90;;;;;;5072345;28;20465;-66
2022/07/11 06:44:24;;;;;;;10.73;9.73;;;18.40;99.90;;;;;;5073330;28;21100;-65
2022/07/11 06:46:53;;;;;;;10.77;9.90;;;18.50;99.90;;;;;;5072506;28;20465;-67
2022/07/11 06:49:20;;;;;;;11.43;10.43;;;18.50;99.90;;;;;;5073237;28;20464;-67
2022/07/11 06:51:47;;;;;;;10.90;10.03;;;18.60;99.90;;;;;;5072762;28;20473;-66
2022/07/11 06:54:14;;;;;;;10.17;9.40;;;18.60;99.90;;;;;;5072043;28;20461;-66
2022/07/11 06:56:41;;;;;;;10.50;9.60;;;18.70;99.90;;;;;;5071386;28;21018;-67
2022/07/11 06:59:08;;;;;;;12.00;10.83;;;18.60;99.90;;;;;;5071040;28;20968;-67
2022/07/11 07:01:35;;;;;;;11.40;10.40;;;18.50;99.90;;;;;;5072353;28;20501;-66
2022/07/11 07:04:03;;;;;;;12.23;11.17;;;18.50;99.90;;;;;;5072827;28;20464;-66
2022/07/11 07:06:30;;;;;;;12.43;10.47;;;18.70;99.90;;;;;;5072149;28;20458;-65
2022/07/11 07:08:56;;;;;;;12.33;11.40;;;18.70;99.90;;;;;;5071510;28;21016;-67
2022/07/11 07:11:23;;;;;;;11.40;10.63;;;18.80;99.90;;;;;;5072787;28;20465;-67
2022/07/11 07:13:50;;;;;;;14.67;13.20;;;19.00;99.90;;;;;;5072250;28;20511;-66
2022/07/11 07:16:17;;;;;;;11.57;10.57;;;19.20;99.90;;;;;;5072302;28;20592;-66
2022/07/11 07:18:45;;;;;;;11.60;10.70;;;19.40;99.90;;;;;;5070779;28;20457;-65
2022/07/11 07:21:13;;;;;;;12.17;11.07;;;19.60;99.90;;;;;;5072432;28;20528;-66
2022/07/11 07:23:40;;;;;;;11.73;10.90;;;19.70;99.90;;;;;;5072006;28;20839;-65
2022/07/11 07:26:08;;;;;;;12.03;11.33;;;19.80;99.90;;;;;;5071827;28;20527;-66
2022/07/11 07:28:34;;;;;;;15.70;12.27;;;19.80;99.90;;;;;;5071449;28;21857;-66
2022/07/11 07:31:03;;;;;;;12.40;11.70;;;19.70;99.90;;;;;;5087150;28;20457;-65
2022/07/11 07:33:31;;;;;;;12.33;11.43;;;19.50;99.90;;;;;;5094114;28;20547;-64
2022/07/11 07:35:57;;;;;;;12.40;11.30;;;19.40;99.90;;;;;;5088516;28;21372;-67
2022/07/11 07:38:25;;;;;;;11.50;10.70;;;19.40;99.90;;;;;;5071242;28;20550;-65
2022/07/11 07:40:52;;;;;;;12.33;11.60;;;19.50;99.90;;;;;;5071526;28;20965;-68
2022/07/11 07:43:19;;;;;;;11.67;11.07;;;19.90;99.90;;;;;;5071654;28;20466;-66
2022/07/11 07:45:47;;;;;;;13.40;12.70;;;20.20;99.90;;;;;;5071473;28;20466;-65
2022/07/11 07:48:14;;;;;;;13.57;12.77;;;20.70;99.90;;;;;;5071880;28;20465;-67
2022/07/11 07:50:42;;;;;;;14.10;12.80;;;21.00;99.90;;;;;;5070822;28;20486;-66
2022/07/11 07:53:09;;;;;;;14.87;13.87;;;21.50;99.90;;;;;;5071674;28;20486;-66
2022/07/11 07:55:37;;;;;;;14.33;13.43;;;21.70;99.90;;;;;;5071094;28;20458;-67
2022/07/11 07:58:04;;;;;;;14.67;13.77;;;21.90;99.90;;;;;;5070770;28;21319;-65
2022/07/11 08:03:15;;;;;;;14.67;13.70;;;21.80;99.90;;;;;;5070899;28;20492;-67
2022/07/11 08:05:42;;;;;;;14.80;13.60;;;21.90;99.90;;;;;;5069363;28;20454;-66
2022/07/11 08:08:10;;;;;;;14.30;13.50;;;21.90;99.90;;;;;;5070294;28;20457;-66
2022/07/11 08:10:39;;;;;;;14.93;14.13;;;21.70;99.90;;;;;;5070558;28;20840;-65
2022/07/11 08:13:05;;;;;;;14.27;13.47;;;21.50;99.90;;;;;;5071353;28;20556;-67
2022/07/11 08:15:33;;;;;;;13.70;13.00;;;21.30;99.90;;;;;;5070264;28;20464;-67
2022/07/11 08:17:59;;;;;;;13.73;12.90;;;21.10;99.90;;;;;;5069877;28;20462;-67
2022/07/11 08:20:26;;;;;;;13.30;12.70;;;21.10;99.90;;;;;;5071296;28;20753;-67
2022/07/11 08:22:53;;;;;;;14.03;13.20;;;21.00;99.90;;;;;;5070084;28;20457;-67
2022/07/11 08:25:21;;;;;;;13.43;12.83;;;21.00;99.90;;;;;;5074245;28;20467;-66
2022/07/11 08:27:50;;;;;;;13.77;13.07;;;21.30;99.90;;;;;;5098907;28;20808;-65
2022/07/11 08:30:17;;;;;;;13.80;12.97;;;21.80;99.90;;;;;;5075655;28;20467;-66
2022/07/11 08:32:44;;;;;;;14.70;13.80;;;22.30;99.90;;;;;;5069126;28;20489;-67
2022/07/11 08:35:14;;;;;;;14.50;13.80;;;22.80;99.90;;;;;;5070693;28;20638;-66
2022/07/11 08:37:40;;;;;;;15.13;14.23;;;23.30;99.90;;;;;;5069941;28;21023;-67
2022/07/11 08:40:08;;;;;;;15.03;13.97;;;23.20;99.90;;;;;;5069737;28;20486;-66
2022/07/11 08:42:41;;;;;;;14.10;13.40;;;23.40;99.90;;;;;;5069839;28;20453;-67
2022/07/11 08:45:12;;;;;;;13.90;13.30;;;23.30;99.90;;;;;;5069315;28;20465;-66
2022/07/11 08:47:39;;;;;;;14.60;13.80;;;23.00;99.90;;;;;;5070213;28;21222;-67
2022/07/11 08:50:07;;;;;;;14.50;13.60;;;22.70;99.90;;;;;;5067787;28;20462;-66
2022/07/11 08:52:34;;;;;;;13.40;12.70;;;22.60;99.90;;;;;;5067773;28;20500;-68
2022/07/11 08:55:06;;;;;;;14.60;13.60;;;22.40;99.90;;;;;;5069982;28;20459;-65
2022/07/11 08:57:33;;;;;;;14.77;13.27;;;22.10;99.90;;;;;;5069552;28;21512;-67
2022/07/11 09:00:01;;;;;;;13.07;12.37;;;21.50;99.90;;;;;;5069692;28;20858;-66
2022/07/11 09:02:30;;;;;;;14.27;13.43;;;21.40;99.90;;;;;;5068951;28;20464;-67
2022/07/11 09:04:57;;;;;;;14.80;13.60;;;21.50;99.90;;;;;;5070884;28;20465;-67
2022/07/11 09:07:24;;;;;;;13.27;12.47;;;21.40;99.90;;;;;;5068890;28;20458;-66
2022/07/11 09:09:51;;;;;;;13.80;13.13;;;21.30;99.90;;;;;;5069146;28;20450;-67
2022/07/11 09:12:19;;;;;;;14.00;13.00;;;21.50;99.90;;;;;;5069397;28;21106;-66
2022/07/11 09:14:47;;;;;;;13.77;13.07;;;21.60;99.90;;;;;;5070701;28;20450;-65
2022/07/11 09:17:14;;;;;;;13.83;12.93;;;21.70;99.90;;;;;;5069070;28;20466;-68
2022/07/11 09:19:43;;;;;;;14.70;13.40;;;21.50;99.90;;;;;;5070051;28;20458;-66
2022/07/11 09:27:47;;;;;;;14.50;13.47;;;21.80;99.90;;;;;;5087216;28;20852;-67
2022/07/11 09:30:22;;;;;;;14.90;13.90;;;22.00;99.90;;;;;;5093360;28;20460;-66
2022/07/11 09:32:55;;;;;;;15.10;14.20;;;22.30;99.90;;;;;;5074051;28;20490;-66
2022/07/11 09:35:24;;;;;;;15.50;14.50;;;22.30;99.90;;;;;;5068937;28;20944;-67
2022/07/11 09:37:51;;;;;;;15.77;14.57;;;22.30;99.90;;;;;;5069308;28;20988;-68
2022/07/11 09:40:18;;;;;;;15.30;14.10;;;22.60;99.90;;;;;;5069621;28;20481;-67
2022/07/11 09:42:50;;;;;;;15.77;14.70;;;22.90;99.90;;;;;;5069357;28;20466;-67
2022/07/11 09:45:17;;;;;;;15.60;14.57;;;23.10;99.90;;;;;;5068139;28;20982;-65
2022/07/11 09:47:45;;;;;;;15.20;14.20;;;23.00;99.90;;;;;;5069163;28;20526;-66
2022/07/11 09:50:13;;;;;;;15.03;14.23;;;23.10;99.90;;;;;;5068617;28;20461;-67
2022/07/11 09:52:43;;;;;;;15.57;14.67;;;23.20;99.90;;;;;;5069436;28;20476;-66
2022/07/11 09:55:10;;;;;;;15.70;14.80;;;23.20;99.90;;;;;;5068799;28;20474;-68
2022/07/11 09:57:40;;;;;;;15.30;14.47;;;23.30;99.90;;;;;;5068297;28;20544;-67
2022/07/11 10:00:08;;;;;;;16.00;14.83;;;23.70;99.90;;;;;;5068707;28;20462;-66
2022/07/11 10:02:35;;;;;;;16.00;15.10;;;24.20;99.90;;;;;;5068513;28;20481;-68
2022/07/11 10:05:04;;;;;;;15.63;14.63;;;24.70;99.90;;;;;;5067089;28;20458;-67
2022/07/11 10:07:31;;;;;;;15.87;14.97;;;24.30;99.90;;;;;;5069209;28;20470;-66
2022/07/11 10:10:01;;;;;;;16.33;15.43;;;24.40;99.90;;;;;;5068545;28;21025;-67
2022/07/11 10:12:31;;;;;;;15.90;15.10;;;23.80;99.90;;;;;;5068644;28;20549;-67
2022/07/11 10:15:00;;;;;;;16.27;15.17;;;24.00;99.90;;;;;;5069138;28;20903;-66
2022/07/11 10:17:34;;;;;;;15.80;15.00;;;23.90;99.90;;;;;;5069316;28;20476;-66
2022/07/11 10:20:08;;;;;;;14.57;13.90;;;23.20;99.90;;;;;;5067186;28;21321;-66
2022/07/11 10:22:40;;;;;;;14.30;13.40;;;22.30;99.90;;;;;;5068319;28;21230;-67
2022/07/11 10:25:18;;;;;;;13.80;12.97;;;21.50;99.90;;;;;;5069014;28;20462;-67
2022/07/11 10:27:58;;;;;;;14.13;13.30;;;21.00;99.90;;;;;;5069068;28;21643;-67
2022/07/11 10:30:47;;;;;;;12.60;12.00;;;20.80;99.90;;;;;;5068022;28;21041;-67
2022/07/11 10:33:14;;;;;;;12.70;12.10;;;21.00;99.90;;;;;;5069021;28;20449;-67
2022/07/11 10:35:42;;;;;;;13.80;13.00;;;21.30;99.90;;;;;;5069041;28;20466;-66
2022/07/11 10:38:09;;;;;;;14.43;13.03;;;21.60;99.90;;;;;;5069061;28;20462;-68
2022/07/11 10:40:46;;;;;;;13.17;12.37;;;21.70;99.90;;;;;;5068566;28;20492;-67
2022/07/11 10:43:14;;;;;;;13.53;12.23;;;21.90;99.90;;;;;;5068403;28;20497;-67
2022/07/11 10:46:00;;;;;;;12.70;12.17;;;21.90;99.90;;;;;;5068862;28;20477;-67
2022/07/11 10:48:29;;;;;;;12.60;12.10;;;21.80;99.90;;;;;;5068556;28;20461;-67
2022/07/11 10:51:08;;;;;;;13.53;12.47;;;21.70;99.90;;;;;;5069499;28;20473;-67
2022/07/11 10:53:46;;;;;;;13.20;12.50;;;21.40;99.90;;;;;;5068811;28;20468;-68
2022/07/11 10:56:48;;;;;;;12.53;11.93;;;21.20;99.90;;;;;;5068643;28;20553;-66
2022/07/11 10:59:16;;;;;;;12.40;11.80;;;20.90;99.90;;;;;;5021858;28;20532;-67
2022/07/11 11:02:02;;;;;;;11.80;11.30;;;20.90;99.90;;;;;;5069784;28;20556;-67
2022/07/11 11:04:49;;;;;;;12.10;11.50;;;21.20;99.90;;;;;;5072705;28;20461;-66
2022/07/11 11:07:39;;;;;;;13.40;12.73;;;21.40;99.90;;;;;;5072987;28;20922;-67
2022/07/11 11:10:23;;;;;;;12.97;12.37;;;21.40;99.90;;;;;;5072784;28;20603;-66
2022/07/11 11:13:19;;;;;;;13.30;12.70;;;21.40;99.90;;;;;;5072317;28;20756;-66
2022/07/11 11:15:48;;;;;;;13.60;13.00;;;21.70;99.90;;;;;;5071868;28;20473;-68
2022/07/11 11:18:41;;;;;;;13.80;13.20;;;22.00;99.90;;;;;;5071316;28;20483;-67
2022/07/11 11:21:16;;;;;;;13.77;13.10;;;22.30;99.90;;;;;;5071208;28;20486;-66
2022/07/11 11:23:44;;;;;;;14.10;13.40;;;22.40;99.90;;;;;;5071767;28;20586;-67
2022/07/11 11:26:13;;;;;;;13.67;12.97;;;22.60;99.90;;;;;;5071703;28;20501;-66
2022/07/11 11:28:56;;;;;;;13.60;12.80;;;22.50;99.90;;;;;;5071335;28;20563;-66
2022/07/11 11:31:23;;;;;;;13.70;13.10;;;23.00;99.90;;;;;;5071764;28;20481;-67
2022/07/11 11:33:50;;;;;;;14.60;13.90;;;23.60;99.90;;;;;;5072156;28;20814;-67
2022/07/11 11:36:18;;;;;;;14.77;13.87;;;24.00;99.90;;;;;;5071915;28;20944;-68
2022/07/11 11:38:46;;;;;;;15.00;13.90;;;24.30;99.90;;;;;;5071425;28;20461;-67
2022/07/11 11:41:14;;;;;;;13.70;13.10;;;24.40;99.90;;;;;;5071929;28;20504;-67
2022/07/11 11:43:45;;;;;;;14.20;13.60;;;24.40;99.90;;;;;;5071109;28;20728;-67
2022/07/11 11:46:13;;;;;;;14.00;13.20;;;23.70;99.90;;;;;;5071434;28;20500;-67
2022/07/11 11:48:45;;;;;;;14.43;13.40;;;23.70;99.90;;;;;;5071159;28;20468;-67
2022/07/11 11:51:15;;;;;;;13.53;12.83;;;23.90;99.90;;;;;;5071842;28;21826;-68
2022/07/11 11:53:44;;;;;;;13.97;13.37;;;23.90;99.90;;;;;;5071189;28;20462;-67
2022/07/11 11:56:16;;;;;;;13.97;13.27;;;23.80;99.90;;;;;;5071050;28;20932;-67
2022/07/11 11:58:46;;;;;;;14.00;13.40;;;23.90;99.90;;;;;;5071726;28;20472;-67
2022/07/11 12:01:14;;;;;;;13.87;13.27;;;23.90;99.90;;;;;;5070844;27;20481;-66
2022/07/11 12:03:52;;;;;;;14.40;13.60;;;24.10;99.90;;;;;;5099060;28;20461;-66
2022/07/11 12:06:22;;;;;;;14.03;13.43;;;24.50;99.90;;;;;;5071169;28;20465;-67
2022/07/11 12:08:50;;;;;;;13.97;13.37;;;24.70;99.90;;;;;;5069994;28;20974;-66
2022/07/11 12:11:18;;;;;;;14.50;13.80;;;24.80;99.90;;;;;;5068975;28;20529;-67
2022/07/11 12:13:47;;;;;;;14.70;13.90;;;25.10;99.90;;;;;;5066014;28;20466;-67
2022/07/11 12:19:00;;;;;;;14.20;13.50;;;25.20;99.90;;;;;;5078474;28;21147;-68
2022/07/11 12:21:29;;;;;;;13.90;13.30;;;25.30;99.90;;;;;;5069882;28;20485;-68
2022/07/11 12:23:57;;;;;;;14.17;13.57;;;24.90;99.90;;;;;;5091344;28;20825;-67
2022/07/11 12:26:24;;;;;;;13.80;13.23;;;24.80;99.90;;;;;;5081967;28;20488;-67
2022/07/11 12:29:12;;;;;;;14.00;13.40;;;24.70;99.90;;;;;;5069971;28;22910;-67
2022/07/11 12:31:44;;;;;;;13.90;13.30;;;24.30;99.90;;;;;;5065286;28;20519;-68
2022/07/11 12:34:11;;;;;;;13.70;13.10;;;24.10;99.90;;;;;;5069907;28;20841;-66
2022/07/11 12:36:38;;;;;;;13.70;13.10;;;23.80;99.90;;;;;;5091167;28;20449;-67
2022/07/11 12:39:06;;;;;;;13.57;12.97;;;24.00;99.90;;;;;;5082143;28;20549;-68
2022/07/11 12:41:33;;;;;;;14.40;13.70;;;24.20;99.90;;;;;;5069925;28;21031;-67
2022/07/11 12:46:48;;;;;;;14.13;13.43;;;24.70;99.90;;;;;;5069697;28;20867;-66
2022/07/11 12:49:16;;;;;;;13.80;13.10;;;24.40;99.90;;;;;;5065387;28;20476;-66